createdAt,value
2022-10-24T00:01:40.288Z,1.10
2022-10-24T00:04:08.024Z,1.13
2022-10-24T00:06:35.959Z,1.23
2022-10-24T00:09:03.712Z,1.00
2022-10-24T00:11:32.801Z,1.25
2022-10-24T00:14:00.739Z,1.35
2022-10-24T00:16:28.848Z,1.27
2022-10-24T00:18:56.619Z,1.20
2022-10-24T00:21:24.317Z,1.33
2022-10-24T00:23:52.205Z,1.23
2022-10-24T00:26:20.248Z,1.10
2022-10-24T00:28:49.319Z,1.08
2022-10-24T00:31:19.378Z,1.40
2022-10-24T00:33:47.114Z,1.33
2022-10-24T00:36:16.436Z,1.55
2022-10-24T00:38:44.172Z,1.50
2022-10-24T00:41:16.060Z,1.30
2022-10-24T00:43:43.970Z,1.15
2022-10-24T00:46:13.620Z,1.40
2022-10-24T00:48:43.963Z,1.08
2022-10-24T00:51:21.531Z,1.13
2022-10-24T00:53:51.763Z,1.17
2022-10-24T00:56:22.904Z,1.08
2022-10-24T00:58:51.727Z,1.10
2022-10-24T01:01:21.071Z,0.90
2022-10-24T01:03:48.868Z,0.90
2022-10-24T01:06:34.723Z,1.52
2022-10-24T01:09:16.423Z,1.58
2022-10-24T01:11:54.912Z,1.15
2022-10-24T01:14:34.111Z,0.98
2022-10-24T01:17:12.010Z,1.00
2022-10-24T01:20:16.797Z,0.80
2022-10-24T01:23:00.811Z,1.38
2022-10-24T01:25:42.110Z,1.60
2022-10-24T01:28:13.801Z,0.90
2022-10-24T01:30:46.969Z,1.58
2022-10-24T01:33:23.001Z,1.35
2022-10-24T01:35:55.817Z,1.38
2022-10-24T01:38:29.790Z,1.88
2022-10-24T01:41:01.789Z,1.30
2022-10-24T01:43:37.167Z,1.98
2022-10-24T01:46:10.980Z,1.70
2022-10-24T01:48:42.539Z,1.83
2022-10-24T01:51:14.545Z,1.58
2022-10-24T01:53:44.240Z,1.80
2022-10-24T01:56:14.325Z,1.60
2022-10-24T01:58:42.217Z,2.30
2022-10-24T02:01:17.513Z,1.50
2022-10-24T02:03:49.328Z,1.67
2022-10-24T02:06:20.384Z,1.48
2022-10-24T02:08:55.405Z,2.10
2022-10-24T02:11:23.320Z,1.85
2022-10-24T02:13:57.394Z,1.27
2022-10-24T02:16:27.247Z,1.73
2022-10-24T02:18:57.652Z,1.85
2022-10-24T02:21:32.921Z,2.05
2022-10-24T02:24:07.507Z,1.33
2022-10-24T02:26:39.672Z,1.67
2022-10-24T02:29:12.888Z,1.48
2022-10-24T02:31:48.466Z,1.88
2022-10-24T02:34:19.304Z,2.03
2022-10-24T02:36:50.353Z,2.17
2022-10-24T02:39:19.871Z,1.67
2022-10-24T02:41:50.234Z,1.83
2022-10-24T02:44:20.415Z,1.40
2022-10-24T02:46:53.748Z,1.90
2022-10-24T02:49:22.002Z,1.95
2022-10-24T02:51:51.039Z,1.50
2022-10-24T02:54:19.420Z,2.03
2022-10-24T02:56:51.713Z,2.00
2022-10-24T02:59:19.537Z,2.00
2022-10-24T03:01:47.398Z,1.20
2022-10-24T03:04:16.509Z,1.90
2022-10-24T03:06:44.468Z,1.80
2022-10-24T03:09:12.235Z,1.20
2022-10-24T03:11:40.132Z,1.52
2022-10-24T03:14:08.106Z,1.55
2022-10-24T03:16:35.826Z,1.52
2022-10-24T03:19:03.558Z,2.17
2022-10-24T03:21:32.941Z,1.90
2022-10-24T03:24:00.845Z,1.90
2022-10-24T03:26:28.758Z,2.50
2022-10-24T03:28:56.432Z,2.25
2022-10-24T03:31:26.562Z,2.28
2022-10-24T03:33:54.267Z,1.92
2022-10-24T03:36:22.239Z,2.05
2022-10-24T03:38:51.479Z,2.70
2022-10-24T03:41:19.593Z,1.90
2022-10-24T03:45:32.508Z,2.30
2022-10-24T03:48:00.607Z,2.35
2022-10-24T03:50:28.354Z,2.55
2022-10-24T03:52:56.044Z,3.13
2022-10-24T03:55:23.987Z,2.25
2022-10-24T03:57:51.835Z,2.63
2022-10-24T04:00:20.019Z,2.17
2022-10-24T04:02:50.857Z,2.08
2022-10-24T04:05:18.906Z,2.13
2022-10-24T04:07:47.064Z,2.55
2022-10-24T04:10:17.694Z,2.70
2022-10-24T04:12:45.420Z,2.10
2022-10-24T04:15:13.317Z,2.67
2022-10-24T04:17:41.129Z,2.25
2022-10-24T04:20:11.279Z,2.38
2022-10-24T04:22:39.461Z,2.30
2022-10-24T04:25:07.714Z,1.80
2022-10-24T04:27:40.578Z,1.48
2022-10-24T04:30:14.057Z,2.20
2022-10-24T04:32:45.032Z,2.30
2022-10-24T04:35:14.885Z,2.30
2022-10-24T04:37:42.760Z,1.73
2022-10-24T04:40:11.395Z,2.55
2022-10-24T04:42:39.143Z,2.78
2022-10-24T04:45:08.519Z,2.38
2022-10-24T04:47:36.455Z,2.67
2022-10-24T04:50:05.561Z,2.58
2022-10-24T04:52:34.654Z,2.85
2022-10-24T04:55:05.147Z,2.08
2022-10-24T04:57:32.942Z,2.50
2022-10-24T05:00:00.644Z,2.40
2022-10-24T05:02:28.455Z,2.22
2022-10-24T05:05:02.529Z,2.22
2022-10-24T05:07:30.848Z,2.42
2022-10-24T05:10:00.030Z,2.67
2022-10-24T05:12:27.856Z,2.10
2022-10-24T05:14:55.639Z,3.03
2022-10-24T05:17:23.406Z,1.98
2022-10-24T05:19:51.153Z,2.55
2022-10-24T05:22:19.908Z,2.28
2022-10-24T05:24:47.810Z,2.78
2022-10-24T05:27:20.655Z,2.40
2022-10-24T05:29:48.388Z,2.13
2022-10-24T05:32:16.131Z,2.13
2022-10-24T05:34:43.909Z,2.78
2022-10-24T05:37:11.700Z,2.40
2022-10-24T05:39:39.591Z,2.25
2022-10-24T05:42:07.752Z,1.77
2022-10-24T05:44:36.905Z,2.45
2022-10-24T05:47:04.741Z,2.00
2022-10-24T05:49:32.820Z,1.85
2022-10-24T05:52:00.648Z,1.95
2022-10-24T05:54:37.527Z,2.55
2022-10-24T05:57:16.136Z,2.60
2022-10-24T05:59:45.346Z,2.00
2022-10-24T06:02:19.022Z,2.03
2022-10-24T06:04:46.955Z,1.75
2022-10-24T06:07:15.485Z,2.55
2022-10-24T06:09:43.956Z,2.70
2022-10-24T06:12:13.044Z,2.03
2022-10-24T06:14:40.991Z,2.67
2022-10-24T06:17:11.798Z,2.33
2022-10-24T06:19:40.209Z,2.58
2022-10-24T06:22:09.236Z,1.73
2022-10-24T06:24:38.490Z,2.03
2022-10-24T06:27:06.978Z,2.05
2022-10-24T06:29:35.510Z,2.17
2022-10-24T06:32:03.734Z,1.85
2022-10-24T06:34:35.527Z,2.17
2022-10-24T06:37:03.408Z,2.05
2022-10-24T06:39:31.283Z,1.75
2022-10-24T06:41:58.962Z,1.83
2022-10-24T06:44:27.487Z,1.73
2022-10-24T06:46:55.210Z,2.03
2022-10-24T06:49:22.973Z,1.63
2022-10-24T06:51:52.366Z,1.88
2022-10-24T06:54:20.119Z,2.35
2022-10-24T06:56:47.890Z,2.00
2022-10-24T06:59:18.152Z,2.10
2022-10-24T07:01:46.848Z,2.20
2022-10-24T07:04:14.740Z,2.00
2022-10-24T07:06:42.613Z,3.20
2022-10-24T07:09:15.418Z,3.13
2022-10-24T07:11:43.960Z,2.40
2022-10-24T07:14:12.355Z,2.33
2022-10-24T07:16:42.317Z,2.28
2022-10-24T07:19:11.495Z,2.67
2022-10-24T07:21:39.743Z,2.17
2022-10-24T07:24:08.685Z,1.67
2022-10-24T07:26:37.821Z,2.40
2022-10-24T07:29:05.921Z,3.05
2022-10-24T07:31:35.761Z,1.88
2022-10-24T07:34:06.899Z,2.10
2022-10-24T07:36:35.632Z,2.00
2022-10-24T07:39:04.880Z,1.60
2022-10-24T07:41:33.557Z,2.63
2022-10-24T07:44:03.118Z,3.10
2022-10-24T07:46:31.478Z,2.92
2022-10-24T07:48:59.403Z,2.33
2022-10-24T07:51:28.444Z,2.25
2022-10-24T07:53:57.867Z,2.70
2022-10-24T07:56:25.646Z,2.42
2022-10-24T07:58:53.451Z,2.50
2022-10-24T08:01:24.988Z,2.75
2022-10-24T08:03:52.951Z,2.45
2022-10-24T08:06:23.264Z,2.88
2022-10-24T08:08:51.089Z,2.97
2022-10-24T08:11:22.175Z,2.80
2022-10-24T08:13:51.043Z,2.35
2022-10-24T08:16:21.753Z,2.58
2022-10-24T08:18:52.050Z,2.30
2022-10-24T08:21:22.032Z,2.40
2022-10-24T08:23:51.947Z,1.95
2022-10-24T08:26:24.184Z,2.80
2022-10-24T08:28:52.272Z,3.05
2022-10-24T08:31:22.106Z,2.90
2022-10-24T08:33:53.982Z,2.75
2022-10-24T08:36:24.581Z,2.60
2022-10-24T08:38:52.321Z,2.42
2022-10-24T08:41:27.953Z,1.63
2022-10-24T08:43:57.491Z,2.10
2022-10-24T08:46:38.175Z,1.98
2022-10-24T08:49:16.958Z,2.13
2022-10-24T08:51:48.515Z,1.95
2022-10-24T08:54:23.826Z,2.33
2022-10-24T08:56:55.595Z,2.10
2022-10-24T08:59:23.719Z,1.75
2022-10-24T09:01:59.395Z,2.35
2022-10-24T09:04:37.613Z,2.20
2022-10-24T09:07:10.312Z,1.90
2022-10-24T09:09:44.318Z,2.03
2022-10-24T09:12:14.950Z,2.20
2022-10-24T09:14:47.065Z,1.63
2022-10-24T09:17:21.155Z,1.83
2022-10-24T09:19:54.566Z,1.90
2022-10-24T09:22:23.832Z,2.38
2022-10-24T09:24:54.587Z,1.75
2022-10-24T09:27:26.563Z,2.40
2022-10-24T09:29:54.668Z,2.05
2022-10-24T09:32:26.817Z,2.20
2022-10-24T09:34:56.415Z,1.67
2022-10-24T09:37:42.750Z,2.42
2022-10-24T09:40:19.070Z,2.00
2022-10-24T09:42:52.522Z,2.15
2022-10-24T09:45:30.511Z,2.33
2022-10-24T09:48:00.476Z,2.35
2022-10-24T09:50:31.826Z,1.92
2022-10-24T09:53:00.897Z,2.13
2022-10-24T09:55:31.103Z,1.63
2022-10-24T09:58:05.295Z,2.40
2022-10-24T10:00:35.137Z,2.10
2022-10-24T10:03:05.914Z,2.10
2022-10-24T10:05:45.922Z,2.05
2022-10-24T10:08:19.985Z,2.42
2022-10-24T10:11:00.588Z,2.42
2022-10-24T10:13:29.530Z,2.80
2022-10-24T10:15:59.027Z,2.90
2022-10-24T10:18:30.980Z,2.78
2022-10-24T10:21:04.155Z,3.35
2022-10-24T10:23:34.490Z,2.17
2022-10-24T10:26:15.192Z,2.72
2022-10-24T10:28:47.668Z,2.67
2022-10-24T10:31:22.258Z,3.15
2022-10-24T10:34:03.215Z,2.92
2022-10-24T10:36:36.732Z,2.88
2022-10-24T10:39:23.650Z,1.88
2022-10-24T10:41:59.779Z,2.30
2022-10-24T10:44:44.378Z,2.10
2022-10-24T10:47:22.722Z,1.90
2022-10-24T10:49:57.118Z,2.03
2022-10-24T10:52:32.207Z,1.40
2022-10-24T10:55:29.382Z,1.58
2022-10-24T10:58:10.944Z,1.50
2022-10-24T11:00:48.158Z,1.83
2022-10-24T11:03:29.404Z,1.80
2022-10-24T11:06:10.400Z,1.58
2022-10-24T11:08:53.788Z,1.67
2022-10-24T11:11:25.720Z,1.58
2022-10-24T11:14:00.268Z,1.40
2022-10-24T11:16:30.435Z,1.52
2022-10-24T11:19:02.847Z,1.35
2022-10-24T11:21:35.967Z,1.25
2022-10-24T11:24:13.742Z,1.50
2022-10-24T11:26:44.713Z,1.52
2022-10-24T11:29:20.815Z,1.40
2022-10-24T11:31:53.958Z,1.15
2022-10-24T11:34:32.317Z,1.40
2022-10-24T11:37:07.313Z,1.13
2022-10-24T11:39:45.347Z,1.58
2022-10-24T11:42:20.428Z,1.15
2022-10-24T11:44:55.056Z,1.35
2022-10-24T11:47:48.771Z,1.30
2022-10-24T11:50:25.921Z,1.13
2022-10-24T11:52:58.001Z,0.93
2022-10-24T11:55:31.520Z,1.23
2022-10-24T11:58:01.264Z,1.38
2022-10-24T12:00:32.325Z,1.33
2022-10-24T12:03:30.413Z,1.30
2022-10-24T12:06:18.030Z,1.17
2022-10-24T12:09:05.384Z,1.30
2022-10-24T12:11:57.528Z,1.42
2022-10-24T12:15:02.854Z,0.88
2022-10-24T12:18:01.429Z,1.45
2022-10-24T12:20:31.189Z,1.30
2022-10-24T12:23:01.966Z,1.05
2022-10-24T12:25:33.233Z,1.33
2022-10-24T12:28:04.972Z,1.30
2022-10-24T12:30:35.687Z,1.50
2022-10-24T12:33:24.935Z,1.00
2022-10-24T12:35:56.379Z,1.30
2022-10-24T12:39:07.588Z,0.90
2022-10-24T12:41:43.780Z,1.25
2022-10-24T12:44:38.920Z,1.40
2022-10-24T12:47:41.447Z,1.10
2022-10-24T12:50:46.809Z,1.05
2022-10-24T12:53:32.399Z,1.45
2022-10-24T12:56:10.088Z,1.20
2022-10-24T12:58:38.927Z,1.10
2022-10-24T13:01:12.889Z,0.85
2022-10-24T13:03:58.020Z,0.95
2022-10-24T13:06:29.871Z,1.30
2022-10-24T13:09:21.723Z,1.00
2022-10-24T13:12:02.193Z,0.93
2022-10-24T13:14:56.171Z,1.45
2022-10-24T13:17:37.321Z,1.00
2022-10-24T13:20:18.084Z,1.20
2022-10-24T13:22:47.957Z,1.33
2022-10-24T13:25:22.038Z,0.93
2022-10-24T13:28:23.242Z,1.23
2022-10-24T13:30:53.729Z,1.10
2022-10-24T13:33:50.251Z,1.08
2022-10-24T13:36:27.784Z,1.35
2022-10-24T13:38:59.432Z,1.02
2022-10-24T13:41:31.025Z,1.15
2022-10-24T13:44:03.933Z,1.35
2022-10-24T13:46:41.799Z,1.35
2022-10-24T13:49:17.191Z,1.02
2022-10-24T13:51:47.622Z,1.30
2022-10-24T13:54:21.727Z,1.38
2022-10-24T13:56:50.229Z,1.40
2022-10-24T13:59:29.217Z,1.30
2022-10-24T14:01:59.529Z,1.10
2022-10-24T14:04:29.447Z,1.30
2022-10-24T14:07:02.974Z,1.30
2022-10-24T14:09:32.407Z,0.93
2022-10-24T14:12:00.276Z,1.60
2022-10-24T14:14:33.062Z,1.10
2022-10-24T14:17:09.633Z,1.05
2022-10-24T14:19:45.877Z,1.38
2022-10-24T14:22:21.317Z,1.00
2022-10-24T14:24:50.035Z,1.48
2022-10-24T14:27:20.075Z,1.20
2022-10-24T14:29:58.470Z,1.13
2022-10-24T14:32:27.811Z,1.30
2022-10-24T14:34:58.259Z,0.93
2022-10-24T14:37:32.645Z,1.30
2022-10-24T14:40:01.573Z,1.30
2022-10-24T14:42:30.213Z,0.98
2022-10-24T14:44:58.675Z,1.50
2022-10-24T14:47:29.651Z,1.20
2022-10-24T14:50:01.792Z,1.90
2022-10-24T14:52:36.481Z,1.27
2022-10-24T14:55:07.544Z,1.60
2022-10-24T14:57:37.712Z,1.17
2022-10-24T15:00:08.378Z,1.20
2022-10-24T15:02:42.139Z,1.23
2022-10-24T15:05:27.031Z,1.20
2022-10-24T15:08:20.362Z,1.23
2022-10-24T15:10:44.907Z,0.90
2022-10-24T15:13:15.033Z,1.42
2022-10-24T15:15:52.640Z,1.30
2022-10-24T15:18:23.353Z,1.17
2022-10-24T15:20:54.768Z,1.38
2022-10-24T15:23:27.911Z,1.08
2022-10-24T15:26:02.199Z,1.10
2022-10-24T15:28:38.372Z,1.30
2022-10-24T15:31:11.202Z,1.30
2022-10-24T15:36:18.301Z,1.13
2022-10-24T15:38:46.060Z,1.55
2022-10-24T15:41:14.044Z,1.35
2022-10-24T15:43:42.151Z,1.25
2022-10-24T15:46:09.971Z,1.20
2022-10-24T15:48:38.720Z,1.48
2022-10-24T15:51:07.046Z,1.25
2022-10-24T15:53:36.106Z,1.48
2022-10-24T15:56:03.797Z,1.50
2022-10-24T15:58:31.651Z,1.33
2022-10-24T16:01:00.048Z,1.40
2022-10-24T16:03:28.013Z,1.40
2022-10-24T16:05:58.114Z,1.20
2022-10-24T16:08:26.340Z,1.63
2022-10-24T16:10:55.718Z,1.40
2022-10-24T16:13:24.025Z,1.23
2022-10-24T16:15:51.781Z,1.17
2022-10-24T16:18:19.476Z,1.30
2022-10-24T16:20:47.298Z,1.65
2022-10-24T16:23:17.441Z,1.50
2022-10-24T16:25:45.545Z,1.77
2022-10-24T16:28:15.607Z,1.80
2022-10-24T16:30:44.600Z,1.40
2022-10-24T16:33:12.985Z,1.38
2022-10-24T16:35:42.210Z,1.75
2022-10-24T16:38:10.450Z,1.60
2022-10-24T16:40:42.422Z,1.70
2022-10-24T16:43:11.832Z,1.77
2022-10-24T16:45:41.105Z,1.63
2022-10-24T16:48:08.872Z,1.75
2022-10-24T16:50:36.652Z,1.60
2022-10-24T16:53:07.254Z,1.10
2022-10-24T16:55:35.367Z,1.80
2022-10-24T16:58:03.436Z,1.27
2022-10-24T17:00:31.307Z,1.42
2022-10-24T17:03:03.134Z,1.60
2022-10-24T17:05:33.160Z,1.48
2022-10-24T17:08:00.895Z,1.90
2022-10-24T17:10:28.600Z,1.83
2022-10-24T17:12:57.052Z,1.55
2022-10-24T17:15:24.836Z,1.80
2022-10-24T17:17:52.709Z,2.20
2022-10-24T17:20:22.023Z,1.48
2022-10-24T17:22:50.222Z,1.50
2022-10-24T17:25:21.588Z,1.52
2022-10-24T17:27:50.182Z,1.80
2022-10-24T17:30:20.606Z,1.67
2022-10-24T17:32:49.184Z,1.40
2022-10-24T17:35:20.443Z,1.40
2022-10-24T17:38:03.095Z,1.10
2022-10-24T17:40:42.323Z,1.30
2022-10-24T17:43:18.820Z,1.83
2022-10-24T17:45:47.286Z,1.50
2022-10-24T17:48:17.754Z,1.67
2022-10-24T17:50:46.030Z,1.55
2022-10-24T17:53:17.057Z,1.42
2022-10-24T17:55:47.132Z,1.60
2022-10-24T17:58:16.783Z,1.70
2022-10-24T18:00:45.029Z,1.60
2022-10-24T18:03:12.980Z,1.80
2022-10-24T18:05:40.779Z,1.83
2022-10-24T18:08:10.441Z,1.63
2022-10-24T18:10:40.548Z,3.55
2022-10-24T18:13:08.783Z,3.25
2022-10-24T18:15:38.811Z,1.67
2022-10-24T18:18:06.809Z,1.80
2022-10-24T18:20:35.655Z,1.17
2022-10-24T18:23:03.515Z,1.05
2022-10-24T18:25:31.285Z,1.15
2022-10-24T18:28:00.429Z,0.80
2022-10-24T18:30:28.225Z,0.70
2022-10-24T18:32:56.020Z,0.73
2022-10-24T18:35:23.769Z,1.20
2022-10-24T18:40:21.425Z,0.80
2022-10-24T18:42:51.787Z,0.70
2022-10-24T18:45:23.368Z,0.97
2022-10-24T18:47:52.389Z,0.63
2022-10-24T18:50:23.584Z,0.60
2022-10-24T18:52:56.645Z,0.87
2022-10-24T18:55:26.490Z,0.90
2022-10-24T18:57:55.150Z,0.87
2022-10-24T19:00:26.612Z,0.83
2022-10-24T19:03:04.095Z,1.00
2022-10-24T19:05:54.797Z,0.67
2022-10-24T19:08:25.720Z,1.10
2022-10-24T19:10:56.168Z,1.00
2022-10-24T19:13:25.351Z,1.10
2022-10-24T19:15:58.003Z,1.10
2022-10-24T19:18:26.766Z,0.90
2022-10-24T19:20:54.638Z,1.10
2022-10-24T19:23:22.385Z,0.83
2022-10-24T19:25:50.816Z,1.10
2022-10-24T19:28:21.010Z,1.10
2022-10-24T19:30:49.694Z,1.00
2022-10-24T19:33:18.753Z,1.03
2022-10-24T19:35:47.714Z,1.00
2022-10-24T19:38:15.536Z,0.73
2022-10-24T19:40:47.686Z,0.90
2022-10-24T19:43:15.447Z,0.97
2022-10-24T19:45:50.167Z,0.80
2022-10-24T19:48:19.860Z,0.67
2022-10-24T19:50:47.750Z,0.80
2022-10-24T19:53:15.835Z,0.80
2022-10-24T19:55:44.091Z,0.57
2022-10-24T19:58:12.920Z,0.80
2022-10-24T20:00:41.400Z,0.97
2022-10-24T20:03:09.349Z,0.60
2022-10-24T20:05:38.556Z,0.90
2022-10-24T20:08:08.339Z,0.80
2022-10-24T20:10:36.129Z,0.80
2022-10-24T20:13:03.880Z,0.80
2022-10-24T20:15:31.647Z,0.70
2022-10-24T20:17:59.349Z,1.37
2022-10-24T20:20:27.164Z,0.70
2022-10-24T20:22:58.350Z,0.83
2022-10-24T20:25:26.124Z,1.00
2022-10-24T20:27:53.920Z,0.83
2022-10-24T20:30:23.713Z,0.97
2022-10-24T20:32:53.853Z,0.70
2022-10-24T20:35:22.170Z,0.80
2022-10-24T20:37:50.138Z,0.77
2022-10-24T20:40:20.033Z,1.00
2022-10-24T20:42:49.514Z,0.90
2022-10-24T20:45:22.066Z,0.97
2022-10-24T20:47:51.149Z,0.90
2022-10-24T20:50:18.961Z,0.97
2022-10-24T20:52:46.926Z,1.03
2022-10-24T20:55:25.279Z,0.83
2022-10-24T20:58:04.215Z,1.00
2022-10-24T21:00:31.982Z,0.90
2022-10-24T21:02:59.784Z,0.73
2022-10-24T21:05:29.024Z,0.73
2022-10-24T21:07:56.868Z,0.80
2022-10-24T21:10:24.592Z,0.50
2022-10-24T21:12:54.710Z,0.80
2022-10-24T21:15:24.032Z,0.83
2022-10-24T21:17:52.554Z,0.60
2022-10-24T21:20:20.291Z,0.60
2022-10-24T21:22:47.969Z,0.70
2022-10-24T21:25:15.745Z,0.70
2022-10-24T21:27:43.616Z,0.90
2022-10-24T21:30:14.798Z,0.90
2022-10-24T21:32:44.133Z,0.90
2022-10-24T21:35:11.942Z,0.53
2022-10-24T21:37:39.708Z,0.77
2022-10-24T21:40:08.426Z,0.80
2022-10-24T21:42:36.121Z,0.60
2022-10-24T21:45:04.309Z,1.10
2022-10-24T21:47:32.035Z,0.80
2022-10-24T21:50:01.081Z,0.80
2022-10-24T21:52:28.959Z,0.80
2022-10-24T21:54:56.936Z,1.00
2022-10-24T21:57:24.755Z,1.20
2022-10-24T21:59:52.515Z,0.80
2022-10-24T22:02:22.454Z,0.90
2022-10-24T22:04:50.307Z,0.77
2022-10-24T22:07:19.493Z,0.90
2022-10-24T22:09:47.198Z,1.07
2022-10-24T22:12:14.999Z,0.80
2022-10-24T22:14:42.748Z,0.60
2022-10-24T22:17:10.509Z,0.80
2022-10-24T22:19:38.174Z,0.90
2022-10-24T22:22:05.877Z,1.00
2022-10-24T22:24:34.975Z,1.10
2022-10-24T22:27:02.747Z,0.87
2022-10-24T22:29:30.645Z,0.87
2022-10-24T22:31:58.936Z,0.93
2022-10-24T22:34:28.378Z,0.60
2022-10-24T22:37:15.173Z,0.70
2022-10-24T22:39:44.941Z,0.80
2022-10-24T22:42:19.356Z,1.13
2022-10-24T22:44:48.938Z,0.67
2022-10-24T22:47:37.291Z,0.70
2022-10-24T22:50:14.670Z,0.70
2022-10-24T22:52:50.509Z,1.00
2022-10-24T22:55:29.417Z,0.60
2022-10-24T22:57:57.573Z,1.03
2022-10-24T23:00:26.199Z,0.97
2022-10-24T23:03:01.742Z,0.70
2022-10-24T23:05:39.908Z,1.00
2022-10-24T23:08:13.207Z,0.90
2022-10-24T23:10:45.011Z,0.87
2022-10-24T23:13:13.247Z,1.10
2022-10-24T23:15:41.368Z,0.90
2022-10-24T23:18:10.689Z,1.00
2022-10-24T23:20:44.512Z,1.20
2022-10-24T23:23:28.176Z,1.30
2022-10-24T23:26:04.914Z,0.77
2022-10-24T23:28:40.888Z,0.80
2022-10-24T23:31:09.396Z,1.00
2022-10-24T23:33:37.464Z,0.93
2022-10-24T23:36:05.859Z,0.90
2022-10-24T23:38:34.300Z,0.60
2022-10-24T23:41:04.081Z,0.80
2022-10-24T23:43:32.335Z,0.77
2022-10-24T23:46:03.097Z,0.70
2022-10-24T23:48:44.619Z,0.77
2022-10-24T23:51:18.515Z,0.70
2022-10-24T23:53:50.282Z,0.90
2022-10-24T23:56:21.672Z,0.70
2022-10-24T23:58:49.851Z,0.90
